Downey, Idaho
Current Conditions -  °F | °C
As of 8:53 PM on Saturday 25 Oct 2014 (Local Time) from KPIH Reporting Station
Broken Clouds Broken Clouds  
Wind Chill: 69°   Ceiling: 12000
Heat Index: 69°   Visibility: 10mi
Dew Point: 32°   Wind: 18mph
Humidity: 25%   Direction: 170°S
Pressure: 29.79"   Gusts: NA
Location:  42.43°N, 112.12°W
Report Text: KPIH 260253Z 17016KT 10SM BKN120 21/00 A2979 RMK AO2 SLP061 T02060000 58025
Loading
Personal Weather Stations






























Interactive Weather Map
Tropical Storm Tracking
New forecast layout! Learn more

10-Day Weather Forecast

Advertisements
Track Severe Weather on mobile